Time;durP1;ratioP1;P1;durP2;ratioP2;P2;SDS_P1;SDS_P2;PMS_P1;PMS_P2;Temp;Humidity;BMP_temperature;BMP_pressure;BME280_temperature;BME280_humidity;BME280_pressure;Samples;Min_cycle;Max_cycle;Signal;HPM_P1;HPM_P2
2020/03/23 00:00:51;;;;;;;2.10;1.90;;;;;;;19.95;35.09;102150.88;;;;-49
2020/03/23 00:04:50;;;;;;;2.20;1.99;;;;;;;19.93;35.00;102152.36;;;;-48
2020/03/23 00:07:50;;;;;;;2.11;1.91;;;;;;;19.92;35.08;102149.11;;;;-49
2020/03/23 00:10:50;;;;;;;2.15;1.95;;;;;;;19.90;35.04;102150.14;;;;-49
2020/03/23 00:13:50;;;;;;;2.19;1.99;;;;;;;19.88;34.97;102149.55;;;;-49
2020/03/23 00:17:50;;;;;;;2.19;1.99;;;;;;;19.86;35.00;102150.31;;;;-49
2020/03/23 00:20:50;;;;;;;2.15;1.83;;;;;;;19.84;35.07;102151.73;;;;-49
2020/03/23 00:24:49;;;;;;;2.05;1.89;;;;;;;19.82;35.05;102157.66;;;;-48
2020/03/23 00:27:50;;;;;;;2.70;2.11;;;;;;;19.80;35.05;102157.66;;;;-49
2020/03/23 00:30:50;;;;;;;2.17;1.97;;;;;;;19.79;35.01;102155.95;;;;-48
2020/03/23 00:33:50;;;;;;;2.04;1.86;;;;;;;19.77;35.00;102153.57;;;;-49
2020/03/23 00:36:50;;;;;;;2.22;2.02;;;;;;;19.75;35.03;102151.44;;;;-50
2020/03/23 00:39:50;;;;;;;2.45;2.01;;;;;;;19.74;35.09;102153.20;;;;-50
2020/03/23 00:42:50;;;;;;;2.00;1.90;;;;;;;19.73;35.11;102157.59;;;;-50
2020/03/23 00:45:50;;;;;;;2.21;1.99;;;;;;;19.72;35.02;102156.69;;;;-50
2020/03/23 00:48:50;;;;;;;2.03;1.89;;;;;;;19.70;35.05;102157.21;;;;-50
2020/03/23 00:51:50;;;;;;;2.30;1.91;;;;;;;19.69;35.06;102154.63;;;;-49
2020/03/23 00:54:50;;;;;;;2.19;1.99;;;;;;;19.67;35.02;102150.67;;;;-49
2020/03/23 00:57:50;;;;;;;2.07;1.89;;;;;;;19.65;35.12;102150.27;;;;-49
2020/03/23 01:00:50;;;;;;;2.09;1.89;;;;;;;19.64;35.10;102141.31;;;;-49
2020/03/23 01:03:50;;;;;;;2.05;1.85;;;;;;;19.62;35.12;102142.84;;;;-48
2020/03/23 01:06:50;;;;;;;1.97;1.80;;;;;;;19.61;35.11;102143.11;;;;-49
2020/03/23 01:09:50;;;;;;;1.94;1.75;;;;;;;19.59;35.15;102143.41;;;;-50
2020/03/23 01:12:50;;;;;;;2.00;1.80;;;;;;;19.59;35.13;102146.58;;;;-50
2020/03/23 01:15:50;;;;;;;2.04;1.86;;;;;;;19.57;35.11;102147.78;;;;-50
2020/03/23 01:18:50;;;;;;;2.01;1.81;;;;;;;19.56;35.15;102141.95;;;;-50
2020/03/23 01:21:50;;;;;;;2.28;2.07;;;;;;;19.55;35.13;102142.27;;;;-50
2020/03/23 01:24:50;;;;;;;1.84;1.72;;;;;;;19.53;35.08;102143.60;;;;-50
2020/03/23 01:27:50;;;;;;;2.06;1.77;;;;;;;19.52;35.17;102135.55;;;;-50
2020/03/23 01:30:50;;;;;;;1.85;1.72;;;;;;;19.51;35.09;102135.39;;;;-50
2020/03/23 01:33:50;;;;;;;2.59;2.01;;;;;;;19.49;35.15;102139.97;;;;-50
2020/03/23 01:36:50;;;;;;;2.11;1.83;;;;;;;19.49;35.08;102134.14;;;;-51
2020/03/23 01:39:50;;;;;;;1.95;1.81;;;;;;;19.47;35.18;102127.91;;;;-50
2020/03/23 01:42:49;;;;;;;2.06;1.86;;;;;;;19.45;35.13;102132.47;;;;-49
2020/03/23 01:45:50;;;;;;;2.14;1.94;;;;;;;19.44;35.11;102137.77;;;;-49
2020/03/23 01:48:50;;;;;;;2.33;1.78;;;;;;;19.43;35.15;102139.57;;;;-48
2020/03/23 01:51:50;;;;;;;2.72;1.91;;;;;;;19.41;35.13;102141.11;;;;-50
2020/03/23 01:54:50;;;;;;;1.90;1.80;;;;;;;19.41;35.17;102139.71;;;;-48
2020/03/23 01:57:50;;;;;;;2.09;1.89;;;;;;;19.40;35.12;102139.02;;;;-50
2020/03/23 02:00:50;;;;;;;2.23;1.77;;;;;;;19.38;35.13;102144.91;;;;-50
2020/03/23 02:03:50;;;;;;;1.79;1.69;;;;;;;19.37;35.10;102140.66;;;;-50
2020/03/23 02:06:50;;;;;;;1.95;1.75;;;;;;;19.36;35.14;102142.88;;;;-50
2020/03/23 02:09:50;;;;;;;2.00;1.80;;;;;;;19.35;35.12;102140.04;;;;-50
2020/03/23 02:12:50;;;;;;;1.99;1.83;;;;;;;19.34;35.17;102141.05;;;;-51
2020/03/23 02:15:50;;;;;;;1.91;1.77;;;;;;;19.32;35.19;102138.89;;;;-50
2020/03/23 02:18:50;;;;;;;2.04;1.84;;;;;;;19.31;35.20;102135.64;;;;-50
2020/03/23 02:21:50;;;;;;;1.89;1.73;;;;;;;19.29;35.18;102141.14;;;;-49
2020/03/23 02:24:50;;;;;;;2.07;1.87;;;;;;;19.29;35.20;102139.19;;;;-48
2020/03/23 02:27:50;;;;;;;2.17;1.77;;;;;;;19.27;35.12;102136.08;;;;-49
2020/03/23 02:30:50;;;;;;;1.83;1.67;;;;;;;19.27;35.19;102134.22;;;;-49
2020/03/23 02:39:51;;;;;;;1.91;1.77;;;;;;;19.24;35.18;102136.75;;;;-49
2020/03/23 02:42:50;;;;;;;2.09;1.89;;;;;;;19.23;35.12;102138.34;;;;-48
2020/03/23 02:45:50;;;;;;;2.00;1.83;;;;;;;19.22;35.20;102136.26;;;;-49
2020/03/23 02:48:50;;;;;;;1.74;1.64;;;;;;;19.20;35.20;102138.92;;;;-50
2020/03/23 02:51:50;;;;;;;1.89;1.75;;;;;;;19.20;35.17;102137.45;;;;-50
2020/03/23 02:54:50;;;;;;;2.05;1.85;;;;;;;19.19;35.14;102141.40;;;;-50
2020/03/23 02:57:50;;;;;;;2.12;1.86;;;;;;;19.18;35.23;102142.84;;;;-50
2020/03/23 03:00:50;;;;;;;2.03;1.85;;;;;;;19.17;35.15;102138.86;;;;-50
2020/03/23 03:03:50;;;;;;;1.89;1.77;;;;;;;19.16;35.13;102138.28;;;;-50
2020/03/23 03:06:50;;;;;;;1.84;1.74;;;;;;;19.15;35.20;102140.05;;;;-49
2020/03/23 03:09:49;;;;;;;2.06;1.84;;;;;;;19.14;35.13;102136.91;;;;-50
2020/03/23 03:13:50;;;;;;;1.77;1.67;;;;;;;19.12;35.15;102142.64;;;;-48
2020/03/23 03:16:50;;;;;;;2.00;1.80;;;;;;;19.12;35.18;102141.78;;;;-49
2020/03/23 03:19:50;;;;;;;1.93;1.74;;;;;;;19.11;35.13;102140.71;;;;-49
2020/03/23 03:22:50;;;;;;;1.83;1.70;;;;;;;19.09;35.18;102139.36;;;;-50
2020/03/23 03:25:50;;;;;;;1.85;1.75;;;;;;;19.08;35.20;102139.98;;;;-50
2020/03/23 03:28:50;;;;;;;2.10;1.90;;;;;;;19.07;35.12;102142.67;;;;-50
2020/03/23 03:31:50;;;;;;;2.05;1.85;;;;;;;19.07;35.14;102140.16;;;;-50
2020/03/23 03:34:50;;;;;;;2.03;1.83;;;;;;;19.05;35.16;102141.63;;;;-50
2020/03/23 03:37:50;;;;;;;1.97;1.80;;;;;;;19.05;35.16;102143.87;;;;-50
2020/03/23 03:40:50;;;;;;;1.82;1.72;;;;;;;19.03;35.18;102142.66;;;;-50
2020/03/23 03:43:50;;;;;;;1.98;1.81;;;;;;;19.03;35.15;102147.95;;;;-50
2020/03/23 03:46:49;;;;;;;1.92;1.80;;;;;;;19.02;35.17;102147.76;;;;-50
2020/03/23 03:49:50;;;;;;;2.14;1.94;;;;;;;19.01;35.13;102142.66;;;;-48
2020/03/23 03:52:50;;;;;;;2.00;1.80;;;;;;;19.00;35.14;102149.41;;;;-48
2020/03/23 03:55:50;;;;;;;2.00;1.80;;;;;;;18.99;35.16;102148.73;;;;-48
2020/03/23 03:58:50;;;;;;;2.14;1.94;;;;;;;18.98;35.15;102152.67;;;;-48
2020/03/23 04:01:50;;;;;;;2.07;1.89;;;;;;;18.98;35.14;102163.50;;;;-49
2020/03/23 04:04:50;;;;;;;1.89;1.74;;;;;;;18.98;35.17;102160.80;;;;-49
2020/03/23 04:07:50;;;;;;;2.14;1.90;;;;;;;18.96;35.15;102162.06;;;;-48
2020/03/23 04:10:50;;;;;;;1.83;1.67;;;;;;;18.95;35.09;102164.38;;;;-50
2020/03/23 04:13:50;;;;;;;1.81;1.71;;;;;;;18.94;35.15;102166.03;;;;-50
2020/03/23 04:16:50;;;;;;;1.89;1.78;;;;;;;18.93;35.15;102166.96;;;;-50
2020/03/23 04:19:50;;;;;;;2.56;1.81;;;;;;;18.92;35.18;102168.25;;;;-50
2020/03/23 04:22:50;;;;;;;1.94;1.80;;;;;;;18.93;35.10;102167.63;;;;-50
2020/03/23 04:25:50;;;;;;;1.86;1.76;;;;;;;18.91;35.09;102170.66;;;;-50
2020/03/23 04:28:50;;;;;;;2.15;1.90;;;;;;;18.90;35.15;102166.96;;;;-50
2020/03/23 04:31:50;;;;;;;1.86;1.76;;;;;;;18.90;35.11;102169.08;;;;-50
2020/03/23 04:34:50;;;;;;;2.08;1.87;;;;;;;18.89;35.17;102175.48;;;;-50
2020/03/23 04:37:50;;;;;;;1.95;1.77;;;;;;;18.88;35.12;102174.52;;;;-50
2020/03/23 04:40:50;;;;;;;1.97;1.77;;;;;;;18.86;35.06;102176.71;;;;-50
2020/03/23 04:43:49;;;;;;;1.96;1.76;;;;;;;18.86;35.15;102181.56;;;;-50
2020/03/23 04:46:49;;;;;;;1.98;1.82;;;;;;;18.87;35.16;102181.02;;;;-50
2020/03/23 04:49:50;;;;;;;2.03;1.82;;;;;;;18.88;35.26;102180.16;;;;-50
2020/03/23 04:52:50;;;;;;;1.92;1.76;;;;;;;18.90;35.27;102189.34;;;;-50
2020/03/23 04:55:50;;;;;;;2.09;1.88;;;;;;;18.91;35.28;102187.30;;;;-50
2020/03/23 04:58:50;;;;;;;2.05;1.85;;;;;;;18.92;35.38;102186.98;;;;-50
2020/03/23 05:01:49;;;;;;;1.99;1.80;;;;;;;18.96;35.56;102184.66;;;;-50
2020/03/23 05:04:50;;;;;;;1.92;1.73;;;;;;;18.97;35.31;102188.94;;;;-50
2020/03/23 05:07:50;;;;;;;1.80;1.70;;;;;;;19.01;35.60;102186.97;;;;-50
2020/03/23 05:10:50;;;;;;;2.09;1.82;;;;;;;19.04;35.60;102192.30;;;;-50
2020/03/23 05:13:50;;;;;;;1.97;1.79;;;;;;;19.08;35.54;102200.52;;;;-50
2020/03/23 05:16:50;;;;;;;1.99;1.79;;;;;;;19.16;35.40;102201.31;;;;-50
2020/03/23 05:22:49;;;;;;;2.19;1.81;;;;;;;19.22;35.53;102203.89;;;;-50
2020/03/23 05:26:49;;;;;;;1.94;1.78;;;;;;;19.28;35.61;102207.57;;;;-50
2020/03/23 05:30:49;;;;;;;1.80;1.70;;;;;;;19.34;35.65;102209.50;;;;-50
2020/03/23 05:35:49;;;;;;;1.87;1.71;;;;;;;19.40;35.57;102208.50;;;;-50
2020/03/23 05:38:49;;;;;;;1.92;1.72;;;;;;;19.45;35.59;102216.86;;;;-49
2020/03/23 05:41:49;;;;;;;1.86;1.71;;;;;;;19.48;35.63;102214.63;;;;-49
2020/03/23 05:46:50;;;;;;;2.04;1.83;;;;;;;19.55;35.51;102221.67;;;;-48
2020/03/23 05:51:50;;;;;;;2.39;2.00;;;;;;;19.56;33.59;102216.94;;;;-50
2020/03/23 05:55:50;;;;;;;2.47;2.07;;;;;;;19.60;33.97;102222.48;;;;-52
2020/03/23 05:59:49;;;;;;;2.29;2.09;;;;;;;19.62;32.99;102219.53;;;;-50
2020/03/23 06:02:50;;;;;;;2.47;2.17;;;;;;;19.65;32.69;102224.35;;;;-49
2020/03/23 06:05:50;;;;;;;2.36;2.11;;;;;;;19.68;32.40;102223.63;;;;-49
2020/03/23 06:08:50;;;;;;;2.39;2.00;;;;;;;19.73;34.07;102220.06;;;;-51
2020/03/23 06:11:50;;;;;;;2.73;1.99;;;;;;;19.77;34.23;102220.81;;;;-51
2020/03/23 06:14:49;;;;;;;4.02;2.00;;;;;;;19.80;34.29;102217.73;;;;-50
2020/03/23 06:17:50;;;;;;;1.94;1.80;;;;;;;19.85;34.43;102216.23;;;;-48
2020/03/23 06:22:04;;;;;;;2.89;1.83;;;;;;;19.87;34.52;102220.58;;;;-51
2020/03/23 06:25:54;;;;;;;1.91;1.79;;;;;;;19.91;34.62;102204.03;;;;-51
2020/03/23 06:28:50;;;;;;;2.09;1.89;;;;;;;19.94;34.61;102200.90;;;;-50
2020/03/23 06:33:50;;;;;;;2.08;1.88;;;;;;;19.98;34.68;102209.98;;;;-49
2020/03/23 06:36:50;;;;;;;2.87;2.05;;;;;;;19.99;34.77;102207.95;;;;-49
2020/03/23 06:39:50;;;;;;;2.27;1.87;;;;;;;20.02;34.68;102210.17;;;;-49
2020/03/23 06:42:50;;;;;;;2.29;1.83;;;;;;;20.03;34.81;102210.00;;;;-50
2020/03/23 06:45:50;;;;;;;2.13;1.93;;;;;;;20.05;34.69;102207.46;;;;-50
2020/03/23 06:48:50;;;;;;;2.16;1.86;;;;;;;20.09;34.79;102211.34;;;;-51
2020/03/23 06:51:50;;;;;;;2.38;1.92;;;;;;;20.11;34.71;102213.70;;;;-50
2020/03/23 06:54:50;;;;;;;2.20;1.90;;;;;;;20.12;34.75;102211.61;;;;-51
2020/03/23 06:57:50;;;;;;;2.10;1.90;;;;;;;20.14;34.81;102215.38;;;;-50
2020/03/23 07:00:50;;;;;;;2.25;1.83;;;;;;;20.16;34.80;102217.06;;;;-49
2020/03/23 07:03:50;;;;;;;2.25;1.82;;;;;;;20.16;34.76;102218.77;;;;-49
2020/03/23 07:06:50;;;;;;;2.25;1.95;;;;;;;20.20;34.69;102224.23;;;;-51
2020/03/23 07:09:50;;;;;;;2.11;1.91;;;;;;;20.21;34.67;102220.67;;;;-49
2020/03/23 07:12:49;;;;;;;2.13;1.90;;;;;;;20.21;34.71;102219.45;;;;-49
2020/03/23 07:15:50;;;;;;;2.62;1.97;;;;;;;20.23;34.74;102224.62;;;;-49
2020/03/23 07:18:50;;;;;;;1.86;1.72;;;;;;;20.23;34.65;102224.62;;;;-49
2020/03/23 07:21:50;;;;;;;1.99;1.80;;;;;;;20.24;34.71;102222.51;;;;-51
2020/03/23 07:24:50;;;;;;;3.23;1.95;;;;;;;20.27;34.39;102228.92;;;;-51
2020/03/23 07:27:50;;;;;;;2.20;1.89;;;;;;;20.28;34.52;102229.05;;;;-51
2020/03/23 07:30:50;;;;;;;2.09;1.89;;;;;;;20.28;34.61;102229.55;;;;-49
2020/03/23 07:33:50;;;;;;;2.43;1.91;;;;;;;20.29;34.51;102225.94;;;;-49
2020/03/23 07:36:50;;;;;;;1.97;1.80;;;;;;;20.30;34.58;102230.31;;;;-50
2020/03/23 07:39:50;;;;;;;1.97;1.75;;;;;;;20.31;34.55;102228.25;;;;-50
2020/03/23 07:42:50;;;;;;;4.40;1.91;;;;;;;20.31;34.66;102230.71;;;;-49
2020/03/23 07:45:50;;;;;;;2.92;1.99;;;;;;;20.33;34.53;102228.16;;;;-49
2020/03/23 07:48:50;;;;;;;1.99;1.81;;;;;;;20.34;34.53;102230.98;;;;-49
2020/03/23 07:51:50;;;;;;;2.18;1.98;;;;;;;20.35;34.53;102243.58;;;;-50
2020/03/23 07:54:50;;;;;;;2.69;1.97;;;;;;;20.36;34.48;102239.95;;;;-49
2020/03/23 07:57:50;;;;;;;2.01;1.81;;;;;;;20.37;34.53;102235.06;;;;-49
2020/03/23 08:00:50;;;;;;;2.23;1.79;;;;;;;20.39;34.40;102243.36;;;;-49
2020/03/23 08:03:50;;;;;;;2.08;1.88;;;;;;;20.41;34.44;102238.25;;;;-49
2020/03/23 08:06:50;;;;;;;2.17;1.93;;;;;;;20.42;34.48;102238.88;;;;-49
2020/03/23 08:09:50;;;;;;;2.33;1.98;;;;;;;20.43;34.52;102242.75;;;;-49
2020/03/23 08:12:50;;;;;;;2.41;1.91;;;;;;;20.44;34.40;102245.78;;;;-49
2020/03/23 08:15:50;;;;;;;2.33;1.93;;;;;;;20.45;34.44;102245.96;;;;-45
2020/03/23 08:18:50;;;;;;;2.38;2.00;;;;;;;20.48;34.56;102251.38;;;;-44
2020/03/23 08:21:50;;;;;;;2.23;1.99;;;;;;;20.49;34.41;102249.59;;;;-46
2020/03/23 08:24:50;;;;;;;2.11;1.91;;;;;;;20.52;34.40;102249.47;;;;-45
2020/03/23 08:27:50;;;;;;;2.15;1.90;;;;;;;20.53;34.40;102254.18;;;;-45
2020/03/23 08:30:50;;;;;;;2.20;1.97;;;;;;;20.54;34.34;102250.84;;;;-46
2020/03/23 08:33:50;;;;;;;2.31;1.92;;;;;;;20.56;34.37;102250.92;;;;-45
2020/03/23 08:36:50;;;;;;;2.01;1.82;;;;;;;20.57;34.24;102243.48;;;;-45
2020/03/23 08:39:50;;;;;;;2.31;2.05;;;;;;;20.57;34.39;102238.34;;;;-45
2020/03/23 08:42:50;;;;;;;2.67;1.99;;;;;;;20.57;34.21;102245.67;;;;-46
2020/03/23 08:45:50;;;;;;;2.23;1.99;;;;;;;20.59;34.31;102233.80;;;;-46
2020/03/23 08:48:49;;;;;;;2.05;1.84;;;;;;;20.57;34.59;102236.89;;;;-45
2020/03/23 08:51:50;;;;;;;3.70;2.11;;;;;;;20.57;34.35;102230.13;;;;-49
2020/03/23 08:54:50;;;;;;;2.73;2.21;;;;;;;20.58;33.27;102224.31;;;;-47
2020/03/23 08:57:50;;;;;;;2.41;1.90;;;;;;;20.58;32.73;102229.17;;;;-47
2020/03/23 09:00:50;;;;;;;2.29;2.09;;;;;;;20.57;32.60;102223.08;;;;-47
2020/03/23 09:03:50;;;;;;;2.86;2.09;;;;;;;20.58;33.44;102225.16;;;;-45
2020/03/23 09:06:50;;;;;;;2.37;2.02;;;;;;;20.57;32.21;102222.67;;;;-48
2020/03/23 09:09:49;;;;;;;2.33;1.97;;;;;;;20.59;32.31;102225.78;;;;-44
2020/03/23 09:12:50;;;;;;;2.63;2.13;;;;;;;20.59;32.28;102224.71;;;;-45
2020/03/23 09:15:50;;;;;;;2.23;2.01;;;;;;;20.60;32.33;102218.01;;;;-49
2020/03/23 09:18:50;;;;;;;2.25;2.03;;;;;;;20.62;31.83;102220.78;;;;-50
2020/03/23 09:21:50;;;;;;;2.79;2.23;;;;;;;20.63;31.83;102220.51;;;;-53
2020/03/23 09:24:50;;;;;;;2.94;2.30;;;;;;;20.63;31.71;102211.91;;;;-50
2020/03/23 09:27:49;;;;;;;2.58;2.13;;;;;;;20.67;33.05;102208.88;;;;-50
2020/03/23 09:30:50;;;;;;;2.99;2.31;;;;;;;20.66;31.92;102209.81;;;;-51
2020/03/23 09:33:50;;;;;;;2.78;2.30;;;;;;;20.65;31.12;102204.19;;;;-50
2020/03/23 09:36:50;;;;;;;5.81;2.22;;;;;;;20.63;31.38;102202.06;;;;-53
2020/03/23 09:39:50;;;;;;;7.11;2.71;;;;;;;20.62;29.51;102193.24;;;;-51
2020/03/23 09:42:50;;;;;;;5.35;2.70;;;;;;;20.62;30.78;102198.91;;;;-57
2020/03/23 09:45:50;;;;;;;4.78;2.65;;;;;;;20.63;30.81;102196.00;;;;-52
2020/03/23 09:48:49;;;;;;;6.88;2.97;;;;;;;20.61;29.18;102189.27;;;;-51
2020/03/23 09:51:50;;;;;;;6.09;2.61;;;;;;;20.61;28.25;102184.74;;;;-49
2020/03/23 09:54:50;;;;;;;4.05;2.64;;;;;;;20.62;28.58;102186.97;;;;-50
2020/03/23 09:57:50;;;;;;;4.77;2.37;;;;;;;20.64;29.76;102191.99;;;;-50
2020/03/23 10:00:50;;;;;;;6.09;2.56;;;;;;;20.65;28.92;102187.25;;;;-54
2020/03/23 10:03:50;;;;;;;4.53;2.21;;;;;;;20.66;29.23;102183.89;;;;-59
2020/03/23 10:06:49;;;;;;;4.02;2.35;;;;;;;20.69;29.75;102185.11;;;;-50
2020/03/23 10:09:49;;;;;;;4.26;2.31;;;;;;;20.72;30.40;102187.05;;;;-49
2020/03/23 10:15:50;;;;;;;4.07;2.15;;;;;;;20.74;30.69;102196.57;;;;-50
2020/03/23 10:18:50;;;;;;;4.65;2.19;;;;;;;20.73;30.79;102194.67;;;;-48
2020/03/23 10:21:50;;;;;;;3.54;2.19;;;;;;;20.74;31.05;102191.36;;;;-48
2020/03/23 10:24:50;;;;;;;4.77;2.11;;;;;;;20.75;31.10;102186.73;;;;-48
2020/03/23 10:27:49;;;;;;;5.32;2.14;;;;;;;20.75;31.38;102188.15;;;;-50
2020/03/23 10:30:50;;;;;;;3.19;2.18;;;;;;;20.76;31.58;102183.95;;;;-50
2020/03/23 10:33:50;;;;;;;3.26;2.17;;;;;;;20.77;31.51;102174.61;;;;-50
2020/03/23 10:36:50;;;;;;;3.62;2.00;;;;;;;20.77;31.55;102180.66;;;;-49
2020/03/23 10:39:50;;;;;;;3.05;2.03;;;;;;;20.78;31.82;102177.48;;;;-48
2020/03/23 10:42:50;;;;;;;3.45;2.01;;;;;;;20.81;31.93;102179.85;;;;-48
2020/03/23 10:45:49;;;;;;;3.63;1.87;;;;;;;20.79;31.83;102175.37;;;;-48
2020/03/23 10:48:49;;;;;;;2.78;2.23;;;;;;;20.82;32.02;102167.43;;;;-48
2020/03/23 10:51:49;;;;;;;2.59;2.03;;;;;;;20.81;31.98;102171.34;;;;-49
2020/03/23 10:54:50;;;;;;;2.47;1.90;;;;;;;20.82;32.04;102178.17;;;;-50
2020/03/23 10:57:50;;;;;;;2.51;2.08;;;;;;;20.85;32.32;102171.78;;;;-51
2020/03/23 11:03:50;;;;;;;2.23;1.87;;;;;;;20.89;32.54;102165.04;;;;-49
2020/03/23 11:07:49;;;;;;;2.15;1.87;;;;;;;20.93;32.56;102158.77;;;;-51
2020/03/23 11:10:49;;;;;;;2.25;1.88;;;;;;;20.98;32.84;102164.68;;;;-58
2020/03/23 11:13:49;;;;;;;1.97;1.60;;;;;;;21.00;33.17;102159.73;;;;-45
2020/03/23 11:17:16;;;;;;;2.18;1.95;;;;;;;21.04;33.27;102158.87;;;;-51
2020/03/23 11:19:50;;;;;;;1.99;1.80;;;;;;;21.05;33.04;102155.80;;;;-55
2020/03/23 11:22:51;;;;;;;2.39;1.83;;;;;;;21.09;33.26;102158.75;;;;-56
2020/03/23 11:27:01;;;;;;;2.07;1.87;;;;;;;21.08;32.63;102151.19;;;;-49
2020/03/23 11:29:50;;;;;;;2.52;1.90;;;;;;;21.11;33.25;102156.09;;;;-53
2020/03/23 11:32:49;;;;;;;2.03;1.77;;;;;;;21.10;32.86;102163.13;;;;-54
2020/03/23 11:35:50;;;;;;;2.37;1.91;;;;;;;21.10;32.27;102151.98;;;;-52
2020/03/23 11:38:50;;;;;;;3.43;2.07;;;;;;;21.08;32.26;102145.30;;;;-49
2020/03/23 11:41:50;;;;;;;2.78;1.83;;;;;;;21.10;32.87;102149.96;;;;-49
2020/03/23 11:44:50;;;;;;;2.46;1.94;;;;;;;21.11;32.63;102154.23;;;;-50
2020/03/23 11:47:50;;;;;;;1.85;1.73;;;;;;;21.12;32.61;102148.25;;;;-52
2020/03/23 11:50:49;;;;;;;2.72;2.00;;;;;;;21.14;32.75;102145.70;;;;-50
2020/03/23 11:53:49;;;;;;;2.53;1.75;;;;;;;21.14;32.94;102138.42;;;;-50
2020/03/23 11:56:49;;;;;;;2.17;1.82;;;;;;;21.16;33.02;102148.97;;;;-50
2020/03/23 11:59:49;;;;;;;2.69;1.71;;;;;;;21.17;32.63;102146.85;;;;-51
2020/03/23 12:02:49;;;;;;;2.09;1.89;;;;;;;21.19;32.95;102154.77;;;;-52
2020/03/23 12:05:50;;;;;;;2.04;1.80;;;;;;;21.18;32.63;102143.88;;;;-52
2020/03/23 12:08:50;;;;;;;2.65;1.75;;;;;;;21.21;32.79;102139.20;;;;-53
2020/03/23 12:11:49;;;;;;;1.86;1.71;;;;;;;21.22;33.10;102139.00;;;;-53
2020/03/23 12:14:49;;;;;;;2.45;1.91;;;;;;;21.22;33.16;102138.10;;;;-52
2020/03/23 12:17:50;;;;;;;1.96;1.71;;;;;;;21.21;32.80;102133.66;;;;-58
2020/03/23 12:20:50;;;;;;;2.00;1.80;;;;;;;21.23;32.78;102132.83;;;;-55
2020/03/23 12:23:50;;;;;;;2.13;1.70;;;;;;;21.23;32.92;102140.69;;;;-56
2020/03/23 12:26:50;;;;;;;2.11;1.70;;;;;;;21.22;32.79;102130.38;;;;-51
2020/03/23 12:29:50;;;;;;;2.02;1.82;;;;;;;21.23;33.22;102124.72;;;;-48
2020/03/23 12:32:50;;;;;;;2.01;1.81;;;;;;;21.23;32.37;102121.92;;;;-51
2020/03/23 12:35:49;;;;;;;1.93;1.60;;;;;;;21.22;32.67;102107.84;;;;-50
2020/03/23 12:38:49;;;;;;;2.02;1.83;;;;;;;21.21;32.52;102116.23;;;;-50
2020/03/23 12:41:50;;;;;;;3.18;1.73;;;;;;;21.19;32.69;102115.20;;;;-50
2020/03/23 12:44:49;;;;;;;2.08;1.82;;;;;;;21.16;32.45;102111.59;;;;-50
2020/03/23 12:47:50;;;;;;;2.05;1.85;;;;;;;21.15;32.52;102100.52;;;;-50
2020/03/23 12:50:50;;;;;;;2.06;1.69;;;;;;;21.14;32.51;102097.52;;;;-50
2020/03/23 12:53:50;;;;;;;1.99;1.80;;;;;;;21.14;32.13;102097.64;;;;-50
2020/03/23 12:56:49;;;;;;;1.83;1.70;;;;;;;21.13;32.24;102094.16;;;;-50
2020/03/23 12:59:49;;;;;;;2.19;1.72;;;;;;;21.12;32.26;102085.86;;;;-50
2020/03/23 13:02:50;;;;;;;2.31;1.79;;;;;;;21.12;32.32;102093.25;;;;-47
2020/03/23 13:05:50;;;;;;;2.00;1.80;;;;;;;21.11;32.07;102080.94;;;;-47
2020/03/23 13:08:50;;;;;;;2.02;1.85;;;;;;;21.11;31.97;102081.16;;;;-47
2020/03/23 13:11:50;;;;;;;1.94;1.77;;;;;;;21.11;31.99;102077.63;;;;-48
2020/03/23 13:15:49;;;;;;;2.01;1.82;;;;;;;21.10;32.24;102074.86;;;;-48
2020/03/23 13:18:49;;;;;;;2.43;1.75;;;;;;;21.11;32.13;102067.42;;;;-47
2020/03/23 13:21:51;;;;;;;1.85;1.69;;;;;;;21.10;31.86;102065.91;;;;-47
2020/03/23 13:24:50;;;;;;;1.94;1.71;;;;;;;21.09;31.80;102059.00;;;;-47
2020/03/23 13:27:50;;;;;;;2.43;1.74;;;;;;;21.10;31.99;102061.88;;;;-47
2020/03/23 13:30:50;;;;;;;1.70;1.60;;;;;;;21.10;32.18;102059.70;;;;-47
2020/03/23 13:33:49;;;;;;;2.03;1.83;;;;;;;21.10;32.07;102050.12;;;;-49
2020/03/23 13:36:49;;;;;;;2.06;1.80;;;;;;;21.09;32.09;102043.00;;;;-47
2020/03/23 13:39:49;;;;;;;1.84;1.67;;;;;;;21.10;32.21;102048.61;;;;-47
2020/03/23 13:44:50;;;;;;;1.96;1.76;;;;;;;21.13;32.66;102046.89;;;;-45
2020/03/23 13:47:50;;;;;;;4.75;1.85;;;;;;;21.13;32.74;102042.24;;;;-49
2020/03/23 13:50:50;;;;;;;2.33;1.80;;;;;;;21.15;32.89;102037.01;;;;-50
2020/03/23 13:53:50;;;;;;;1.92;1.72;;;;;;;21.17;32.77;102040.81;;;;-45
2020/03/23 13:56:49;;;;;;;1.82;1.69;;;;;;;21.20;33.13;102037.05;;;;-45
2020/03/23 13:59:49;;;;;;;1.89;1.72;;;;;;;21.20;32.83;102029.76;;;;-44
2020/03/23 14:02:49;;;;;;;1.87;1.70;;;;;;;21.22;32.84;102032.62;;;;-48
2020/03/23 14:05:49;;;;;;;1.85;1.75;;;;;;;21.22;32.66;102035.99;;;;-47
2020/03/23 14:08:49;;;;;;;2.00;1.56;;;;;;;21.23;32.61;102026.57;;;;-45
2020/03/23 14:11:50;;;;;;;6.72;1.91;;;;;;;21.20;32.26;102032.83;;;;-46
2020/03/23 14:14:50;;;;;;;1.95;1.75;;;;;;;21.23;32.87;102031.44;;;;-45
2020/03/23 14:17:49;;;;;;;1.90;1.80;;;;;;;21.24;32.67;102031.41;;;;-48
2020/03/23 14:20:49;;;;;;;2.34;1.77;;;;;;;21.26;32.66;102032.15;;;;-45
2020/03/23 14:23:49;;;;;;;3.37;1.93;;;;;;;21.27;32.88;102034.23;;;;-44
2020/03/23 14:26:50;;;;;;;1.95;1.80;;;;;;;21.28;32.82;102033.73;;;;-45
2020/03/23 14:29:50;;;;;;;2.11;1.85;;;;;;;21.28;33.08;102022.19;;;;-44
2020/03/23 14:32:50;;;;;;;3.17;1.96;;;;;;;21.21;30.92;102027.34;;;;-44
2020/03/23 14:35:50;;;;;;;2.22;2.01;;;;;;;21.13;29.94;102025.27;;;;-52
2020/03/23 14:38:49;;;;;;;3.19;1.77;;;;;;;21.12;30.48;102024.59;;;;-50
2020/03/23 14:41:49;;;;;;;2.01;1.73;;;;;;;21.10;30.29;102028.45;;;;-48
2020/03/23 14:44:52;;;;;;;3.17;1.93;;;;;;;21.10;30.29;102017.08;;;;-50
2020/03/23 14:47:50;;;;;;;3.07;1.97;;;;;;;21.10;30.32;102019.70;;;;-50
2020/03/23 14:50:49;;;;;;;2.25;1.89;;;;;;;21.12;30.82;102025.55;;;;-50
2020/03/23 14:53:50;;;;;;;2.51;1.91;;;;;;;21.11;31.14;102017.44;;;;-50
2020/03/23 14:56:50;;;;;;;2.07;1.72;;;;;;;21.12;31.35;102021.07;;;;-51
2020/03/23 14:59:49;;;;;;;2.07;1.80;;;;;;;21.13;31.38;102016.42;;;;-50
2020/03/23 15:02:49;;;;;;;2.12;1.81;;;;;;;21.13;31.51;102010.50;;;;-50
2020/03/23 15:05:49;;;;;;;1.97;1.71;;;;;;;21.13;31.56;102010.93;;;;-50
2020/03/23 15:08:49;;;;;;;1.80;1.70;;;;;;;21.13;31.65;102006.85;;;;-50
2020/03/23 15:11:50;;;;;;;1.99;1.80;;;;;;;21.13;31.77;102006.23;;;;-50
2020/03/23 15:14:50;;;;;;;2.00;1.80;;;;;;;21.13;31.80;101996.88;;;;-50
2020/03/23 15:17:50;;;;;;;2.00;1.80;;;;;;;21.13;31.85;101999.67;;;;-50
2020/03/23 15:20:49;;;;;;;1.95;1.76;;;;;;;21.12;31.92;102006.67;;;;-50
2020/03/23 15:23:49;;;;;;;1.87;1.73;;;;;;;21.12;31.96;102001.87;;;;-51
2020/03/23 15:26:49;;;;;;;1.82;1.72;;;;;;;21.12;32.04;101998.33;;;;-50
2020/03/23 15:29:49;;;;;;;1.83;1.65;;;;;;;21.11;32.05;102000.47;;;;-50
2020/03/23 15:32:49;;;;;;;3.84;1.91;;;;;;;21.12;32.21;101994.41;;;;-51
2020/03/23 15:35:50;;;;;;;1.74;1.63;;;;;;;21.15;32.31;101990.78;;;;-48
2020/03/23 15:38:50;;;;;;;2.63;1.60;;;;;;;21.17;32.45;101997.19;;;;-48
2020/03/23 15:41:49;;;;;;;2.13;1.70;;;;;;;21.19;32.69;101990.25;;;;-48
2020/03/23 15:44:50;;;;;;;1.92;1.71;;;;;;;21.20;32.82;101982.94;;;;-45
2020/03/23 15:47:49;;;;;;;1.93;1.61;;;;;;;21.23;32.96;101983.73;;;;-44
2020/03/23 15:50:49;;;;;;;2.42;1.69;;;;;;;21.25;33.05;101982.50;;;;-50
2020/03/23 15:53:49;;;;;;;2.13;1.89;;;;;;;21.26;32.85;101992.14;;;;-48
2020/03/23 15:56:50;;;;;;;2.16;1.80;;;;;;;21.26;32.60;101985.27;;;;-44
2020/03/23 15:59:50;;;;;;;1.71;1.61;;;;;;;21.26;32.62;101990.70;;;;-47
2020/03/23 16:02:50;;;;;;;1.96;1.67;;;;;;;21.25;32.38;101993.76;;;;-47
2020/03/23 16:05:49;;;;;;;2.10;1.65;;;;;;;21.26;32.52;101993.88;;;;-44
2020/03/23 16:08:49;;;;;;;2.04;1.70;;;;;;;21.25;32.43;101995.12;;;;-44
2020/03/23 16:11:49;;;;;;;2.49;1.69;;;;;;;21.23;32.44;101991.80;;;;-44
2020/03/23 16:14:49;;;;;;;2.09;1.77;;;;;;;21.22;32.35;101992.75;;;;-44
2020/03/23 16:17:50;;;;;;;1.82;1.72;;;;;;;21.22;32.41;101997.62;;;;-44
2020/03/23 16:20:50;;;;;;;1.86;1.65;;;;;;;21.21;32.25;101998.91;;;;-45
2020/03/23 16:23:50;;;;;;;2.35;1.63;;;;;;;21.21;32.27;101998.61;;;;-46
2020/03/23 16:26:49;;;;;;;2.04;1.73;;;;;;;21.21;32.52;102008.81;;;;-52
2020/03/23 16:29:49;;;;;;;1.65;1.55;;;;;;;21.21;32.70;102004.49;;;;-52
2020/03/23 16:32:49;;;;;;;1.77;1.58;;;;;;;21.21;32.38;102008.64;;;;-51
2020/03/23 16:35:49;;;;;;;2.33;1.80;;;;;;;21.21;32.13;102015.58;;;;-50
2020/03/23 16:38:50;;;;;;;1.99;1.80;;;;;;;21.22;32.39;102018.11;;;;-46
2020/03/23 16:41:49;;;;;;;2.10;1.81;;;;;;;21.21;32.32;102015.38;;;;-44
2020/03/23 16:44:50;;;;;;;2.44;1.88;;;;;;;21.22;32.09;102013.06;;;;-44
2020/03/23 16:47:50;;;;;;;2.86;1.75;;;;;;;21.23;31.78;102019.17;;;;-47
2020/03/23 16:50:49;;;;;;;2.05;1.72;;;;;;;21.24;31.67;102021.44;;;;-47
2020/03/23 16:53:49;;;;;;;2.18;1.86;;;;;;;21.25;32.34;102019.98;;;;-49
2020/03/23 16:56:49;;;;;;;2.04;1.80;;;;;;;21.25;31.47;102015.95;;;;-45
2020/03/23 16:59:50;;;;;;;1.97;1.70;;;;;;;21.26;31.52;102012.72;;;;-43
2020/03/23 17:02:53;;;;;;;2.45;1.74;;;;;;;21.28;32.31;102012.61;;;;-51
2020/03/23 17:05:54;;;;;;;2.05;1.80;;;;;;;21.30;32.37;102007.81;;;;-53
2020/03/23 17:08:51;;;;;;;2.98;1.80;;;;;;;21.32;32.66;102008.53;;;;-53
2020/03/23 17:11:49;;;;;;;2.14;1.80;;;;;;;21.32;31.72;102017.11;;;;-44
2020/03/23 17:14:49;;;;;;;2.15;1.93;;;;;;;21.31;31.63;102021.09;;;;-44
2020/03/23 17:17:50;;;;;;;3.41;1.99;;;;;;;21.34;32.28;102030.50;;;;-50
2020/03/23 17:20:49;;;;;;;2.39;1.90;;;;;;;21.35;31.66;102035.95;;;;-48